createdAt,value
2018-12-26T00:03:06.567Z,8.80
2018-12-26T00:06:28.951Z,10.07
2018-12-26T00:09:51.341Z,10.97
2018-12-26T00:13:13.746Z,5.57
2018-12-26T00:16:36.336Z,7.13
2018-12-26T00:19:58.825Z,6.53
2018-12-26T00:23:21.432Z,10.90
2018-12-26T00:26:44.066Z,9.40
2018-12-26T00:30:06.634Z,8.13
2018-12-26T00:33:29.194Z,9.20
2018-12-26T00:36:51.793Z,8.63
2018-12-26T00:40:14.576Z,8.87
2018-12-26T00:43:37.379Z,8.17
2018-12-26T00:46:59.576Z,8.03
2018-12-26T00:50:22.121Z,6.57
2018-12-26T00:53:44.636Z,9.13
2018-12-26T00:57:07.079Z,10.23
2018-12-26T01:00:30.094Z,7.60
2018-12-26T01:03:52.614Z,5.60
2018-12-26T01:07:15.182Z,8.47
2018-12-26T01:10:37.661Z,13.87
2018-12-26T01:14:00.388Z,8.27
2018-12-26T01:17:22.495Z,6.93
2018-12-26T01:20:44.973Z,10.07
2018-12-26T01:24:07.588Z,9.07
2018-12-26T01:27:29.694Z,9.33
2018-12-26T01:30:52.294Z,8.73
2018-12-26T01:34:14.770Z,8.70
2018-12-26T01:37:37.330Z,9.63
2018-12-26T01:41:00.022Z,10.53
2018-12-26T01:44:22.445Z,7.77
2018-12-26T01:47:45.231Z,7.80
2018-12-26T01:51:07.748Z,8.60
2018-12-26T01:54:30.496Z,11.83
2018-12-26T01:57:53.195Z,6.53
2018-12-26T02:01:15.662Z,11.00
2018-12-26T02:04:38.250Z,14.70
2018-12-26T02:08:00.814Z,9.97
2018-12-26T02:11:23.306Z,12.63
2018-12-26T02:14:45.641Z,10.77
2018-12-26T02:18:07.880Z,8.57
2018-12-26T02:21:30.642Z,8.47
2018-12-26T02:24:52.950Z,7.37
2018-12-26T02:28:15.292Z,8.73
2018-12-26T02:31:37.804Z,7.73
2018-12-26T02:35:00.023Z,5.23
2018-12-26T02:38:22.753Z,10.70
2018-12-26T02:41:45.461Z,11.13
2018-12-26T02:45:07.986Z,14.07
2018-12-26T02:48:30.520Z,11.90
2018-12-26T02:51:53.286Z,8.70
2018-12-26T02:55:15.799Z,11.30
2018-12-26T02:58:38.257Z,10.10
2018-12-26T03:02:01.001Z,15.30
2018-12-26T03:05:23.289Z,9.97
2018-12-26T03:08:45.753Z,12.93
2018-12-26T03:12:07.911Z,11.30
2018-12-26T03:15:30.267Z,11.47
2018-12-26T03:18:53.028Z,12.40
2018-12-26T03:22:15.185Z,13.03
2018-12-26T03:25:37.798Z,14.80
2018-12-26T03:29:00.464Z,15.33
2018-12-26T03:32:23.074Z,14.90
2018-12-26T03:35:45.654Z,18.17
2018-12-26T03:39:08.293Z,17.60
2018-12-26T03:42:31.199Z,18.60
2018-12-26T03:45:54.273Z,24.43
2018-12-26T03:49:19.921Z,18.43
2018-12-26T03:52:42.615Z,17.77
2018-12-26T03:56:05.290Z,20.83
2018-12-26T03:59:27.913Z,20.20
2018-12-26T04:02:51.112Z,18.70
2018-12-26T04:06:14.013Z,21.77
2018-12-26T04:09:36.742Z,21.67
2018-12-26T04:12:59.440Z,21.97
2018-12-26T04:16:22.259Z,22.63
2018-12-26T04:19:45.040Z,18.93
2018-12-26T04:23:07.792Z,21.23
2018-12-26T04:26:29.979Z,21.37
2018-12-26T04:29:52.458Z,23.97
2018-12-26T04:33:14.937Z,23.67
2018-12-26T04:36:37.085Z,22.57
2018-12-26T04:39:59.464Z,24.70
2018-12-26T04:43:22.213Z,22.90
2018-12-26T04:46:44.673Z,24.07
2018-12-26T04:50:06.823Z,21.43
2018-12-26T04:53:28.961Z,23.03
2018-12-26T04:56:51.311Z,24.93
2018-12-26T05:00:14.704Z,22.73
2018-12-26T05:03:37.632Z,27.60
2018-12-26T05:07:00.114Z,26.10
2018-12-26T05:10:22.596Z,24.33
2018-12-26T05:13:45.001Z,26.57
2018-12-26T05:17:07.573Z,33.13
2018-12-26T05:20:30.281Z,26.90
2018-12-26T05:23:52.772Z,31.30
2018-12-26T05:27:15.304Z,29.33
2018-12-26T05:30:38.036Z,26.27
2018-12-26T05:34:00.436Z,31.03
2018-12-26T05:37:23.019Z,29.13
2018-12-26T05:40:45.650Z,30.97
2018-12-26T05:44:08.477Z,35.17
2018-12-26T05:47:31.098Z,30.00
2018-12-26T05:50:53.629Z,32.40
2018-12-26T05:54:16.365Z,34.20
2018-12-26T05:57:42.963Z,32.50
2018-12-26T06:01:03.384Z,33.70
2018-12-26T06:04:25.928Z,33.97
2018-12-26T06:07:48.553Z,34.53
2018-12-26T06:11:11.067Z,35.43
2018-12-26T06:14:33.793Z,30.93
2018-12-26T06:17:56.228Z,35.10
2018-12-26T06:21:18.831Z,37.33
2018-12-26T06:24:41.394Z,35.77
2018-12-26T06:28:04.011Z,36.07
2018-12-26T06:31:26.661Z,36.13
2018-12-26T06:34:49.288Z,35.87
2018-12-26T06:38:11.628Z,38.27
2018-12-26T06:41:33.720Z,36.07
2018-12-26T06:44:56.162Z,39.37
2018-12-26T06:48:18.636Z,34.43
2018-12-26T06:51:41.036Z,38.30
2018-12-26T06:55:03.505Z,36.97
2018-12-26T06:58:26.043Z,39.83
2018-12-26T07:01:48.408Z,39.70
2018-12-26T07:05:10.800Z,60.13
2018-12-26T07:08:33.281Z,39.67
2018-12-26T07:11:56.006Z,40.70
2018-12-26T07:15:18.469Z,41.73
2018-12-26T07:18:40.706Z,42.53
2018-12-26T07:22:03.320Z,37.67
2018-12-26T07:25:25.998Z,42.33
2018-12-26T07:28:48.722Z,43.77
2018-12-26T07:32:11.301Z,41.93
2018-12-26T07:35:33.875Z,42.27
2018-12-26T07:38:56.330Z,42.50
2018-12-26T07:42:18.747Z,38.13
2018-12-26T07:45:41.034Z,37.63
2018-12-26T07:49:03.782Z,43.03
2018-12-26T07:52:26.289Z,37.33
2018-12-26T07:55:48.683Z,38.17
2018-12-26T07:59:11.101Z,37.90
2018-12-26T08:02:33.625Z,35.33
2018-12-26T08:05:55.996Z,40.87
2018-12-26T08:09:18.499Z,36.40
2018-12-26T08:12:40.919Z,34.97
2018-12-26T08:16:03.435Z,40.00
2018-12-26T08:19:25.565Z,43.43
2018-12-26T08:22:48.085Z,42.77
2018-12-26T08:26:10.573Z,46.27
2018-12-26T08:29:32.733Z,41.47
2018-12-26T08:32:55.176Z,41.60
2018-12-26T08:36:17.696Z,43.83
2018-12-26T08:39:40.512Z,44.47
2018-12-26T08:43:03.190Z,47.20
2018-12-26T08:46:25.856Z,45.37
2018-12-26T08:49:48.708Z,46.93
2018-12-26T08:53:11.159Z,43.37
2018-12-26T08:56:34.148Z,45.17
2018-12-26T08:59:56.758Z,43.73
2018-12-26T09:03:19.293Z,42.67
2018-12-26T09:06:41.722Z,42.53
2018-12-26T09:10:03.959Z,43.27
2018-12-26T09:13:26.442Z,39.70
2018-12-26T09:16:48.960Z,41.33
2018-12-26T09:20:11.266Z,34.57
2018-12-26T09:23:33.305Z,34.40
2018-12-26T09:26:55.488Z,35.43
2018-12-26T09:30:17.504Z,31.10
2018-12-26T09:33:39.981Z,34.73
2018-12-26T09:37:02.448Z,30.10
2018-12-26T09:40:24.892Z,26.83
2018-12-26T09:43:47.432Z,26.97
2018-12-26T09:47:09.866Z,29.33
2018-12-26T09:50:32.434Z,27.83
2018-12-26T09:53:54.824Z,26.13
2018-12-26T09:57:17.520Z,27.93
2018-12-26T10:00:39.976Z,27.07
2018-12-26T10:04:02.445Z,26.37
2018-12-26T10:07:25.082Z,26.37
2018-12-26T10:10:47.725Z,28.43
2018-12-26T10:14:10.248Z,26.93
2018-12-26T10:17:32.910Z,27.17
2018-12-26T10:20:55.452Z,28.13
2018-12-26T10:24:17.870Z,28.87
2018-12-26T10:27:40.252Z,30.63
2018-12-26T10:31:02.786Z,31.67
2018-12-26T10:34:24.938Z,31.40
2018-12-26T10:37:47.019Z,32.37
2018-12-26T10:41:09.352Z,39.00
2018-12-26T10:44:31.795Z,37.17
2018-12-26T10:47:54.296Z,37.73
2018-12-26T10:51:17.013Z,38.63
2018-12-26T10:54:39.508Z,36.47
2018-12-26T10:58:02.021Z,36.77
2018-12-26T11:01:24.779Z,40.50
2018-12-26T11:04:48.650Z,37.47
2018-12-26T11:08:11.152Z,42.70
2018-12-26T11:11:34.335Z,42.20
2018-12-26T11:14:56.975Z,39.20
2018-12-26T11:18:19.735Z,44.00
2018-12-26T11:21:42.097Z,43.27
2018-12-26T11:25:04.608Z,36.57
2018-12-26T11:28:26.822Z,42.63
2018-12-26T11:31:49.263Z,40.50
2018-12-26T11:35:12.101Z,40.77
2018-12-26T11:38:35.153Z,40.97
2018-12-26T11:41:57.652Z,42.17
2018-12-26T11:45:19.940Z,39.53
2018-12-26T11:48:42.865Z,43.87
2018-12-26T11:52:07.168Z,39.40
2018-12-26T11:55:30.322Z,39.00
2018-12-26T11:58:52.946Z,39.30
2018-12-26T12:02:20.573Z,37.37
2018-12-26T12:05:39.991Z,36.70
2018-12-26T12:09:02.823Z,36.67
2018-12-26T12:12:25.608Z,36.23
2018-12-26T12:15:48.080Z,37.60
2018-12-26T12:19:10.864Z,38.13
2018-12-26T12:22:33.139Z,39.70
2018-12-26T12:25:55.800Z,40.33
2018-12-26T12:29:18.304Z,40.93
2018-12-26T12:32:41.109Z,41.53
2018-12-26T12:36:03.566Z,45.20
2018-12-26T12:39:26.149Z,50.13
2018-12-26T12:42:48.894Z,47.20
2018-12-26T12:46:11.667Z,46.07
2018-12-26T12:49:34.174Z,49.37
2018-12-26T12:52:56.549Z,56.33
2018-12-26T12:56:18.877Z,53.27
2018-12-26T12:59:44.884Z,59.07
2018-12-26T13:03:06.241Z,59.77
2018-12-26T13:06:28.761Z,54.87
2018-12-26T13:09:51.300Z,55.77
2018-12-26T13:13:13.708Z,57.07
2018-12-26T13:16:36.131Z,62.10
2018-12-26T13:19:58.780Z,65.20
2018-12-26T13:23:21.593Z,71.33
2018-12-26T13:26:43.986Z,74.07
2018-12-26T13:30:08.417Z,73.80
2018-12-26T13:33:31.080Z,71.40
2018-12-26T13:36:53.747Z,79.07
2018-12-26T13:40:15.908Z,86.90
2018-12-26T13:43:38.373Z,88.27
2018-12-26T13:47:01.142Z,83.23
2018-12-26T13:50:23.701Z,78.10
2018-12-26T13:53:46.340Z,83.80
2018-12-26T13:57:08.978Z,73.60
2018-12-26T14:00:31.652Z,73.33
2018-12-26T14:03:54.328Z,71.10
2018-12-26T14:07:16.862Z,81.90
2018-12-26T14:10:39.376Z,76.37
2018-12-26T14:14:01.482Z,82.40
2018-12-26T14:17:24.152Z,89.97
2018-12-26T14:20:46.820Z,78.67
2018-12-26T14:24:09.420Z,84.03
2018-12-26T14:27:32.289Z,91.67
2018-12-26T14:30:54.973Z,80.37
2018-12-26T14:34:17.816Z,73.50
2018-12-26T14:37:40.353Z,79.83
2018-12-26T14:41:02.728Z,70.57
2018-12-26T14:44:25.384Z,72.30
2018-12-26T14:47:48.040Z,80.10
2018-12-26T14:51:10.528Z,80.17
2018-12-26T14:54:32.622Z,80.37
2018-12-26T14:57:54.952Z,67.37
2018-12-26T15:01:17.601Z,75.60
2018-12-26T15:04:39.602Z,79.60
2018-12-26T15:08:02.342Z,74.47
2018-12-26T15:11:24.848Z,73.63
2018-12-26T15:14:47.636Z,74.03
2018-12-26T15:18:10.031Z,70.73
2018-12-26T15:21:32.764Z,65.80
2018-12-26T15:24:55.418Z,73.33
2018-12-26T15:28:17.860Z,62.30
2018-12-26T15:31:40.306Z,59.03
2018-12-26T15:35:03.542Z,56.67
2018-12-26T15:38:26.184Z,57.80
2018-12-26T15:41:48.817Z,55.87
2018-12-26T15:45:11.359Z,62.10
2018-12-26T15:48:34.205Z,59.20
2018-12-26T15:51:56.431Z,64.53
2018-12-26T15:55:18.765Z,67.20
2018-12-26T15:58:41.660Z,61.73
2018-12-26T16:02:04.351Z,67.47
2018-12-26T16:05:26.899Z,54.57
2018-12-26T16:08:49.532Z,52.50
2018-12-26T16:12:12.052Z,57.27
2018-12-26T16:15:34.797Z,53.27
2018-12-26T16:18:57.174Z,59.10
2018-12-26T16:22:19.594Z,64.97
2018-12-26T16:25:42.022Z,57.33
2018-12-26T16:29:04.582Z,60.43
2018-12-26T16:32:27.030Z,68.90
2018-12-26T16:35:49.388Z,62.53
2018-12-26T16:39:12.161Z,73.77
2018-12-26T16:42:34.633Z,66.40
2018-12-26T16:45:57.042Z,64.37
2018-12-26T16:49:21.434Z,66.13
2018-12-26T16:52:43.322Z,62.50
2018-12-26T16:56:05.881Z,65.87
2018-12-26T16:59:28.218Z,72.57
2018-12-26T17:02:50.398Z,65.17
2018-12-26T17:06:12.949Z,66.77
2018-12-26T17:09:35.678Z,68.40
2018-12-26T17:12:58.148Z,63.77
2018-12-26T17:16:20.635Z,77.63
2018-12-26T17:19:42.817Z,73.37
2018-12-26T17:23:05.551Z,69.60
2018-12-26T17:26:28.069Z,62.10
2018-12-26T17:29:50.456Z,67.67
2018-12-26T17:33:13.141Z,69.90
2018-12-26T17:36:35.772Z,65.10
2018-12-26T17:39:58.302Z,68.27
2018-12-26T17:43:20.848Z,62.87
2018-12-26T17:46:43.250Z,63.33
2018-12-26T17:50:47.039Z,62.27
2018-12-26T17:54:18.419Z,72.50
2018-12-26T17:57:44.856Z,66.57
2018-12-26T18:01:36.148Z,65.53
2018-12-26T18:04:58.856Z,64.87
2018-12-26T18:08:21.376Z,68.80
2018-12-26T18:11:43.990Z,58.77
2018-12-26T18:15:09.106Z,67.53
2018-12-26T18:18:31.656Z,71.10
2018-12-26T18:21:54.559Z,72.80
2018-12-26T18:25:17.144Z,85.73
2018-12-26T18:28:39.742Z,92.47
2018-12-26T18:32:02.526Z,111.77
2018-12-26T18:35:25.090Z,108.10
2018-12-26T18:38:47.493Z,96.37
2018-12-26T18:42:09.919Z,126.83
2018-12-26T18:45:32.646Z,109.83
2018-12-26T18:48:54.719Z,115.93
2018-12-26T18:52:17.262Z,157.23
2018-12-26T18:55:39.672Z,133.77
2018-12-26T18:59:02.360Z,158.33
2018-12-26T19:02:24.833Z,140.23
2018-12-26T19:05:47.480Z,204.63
2018-12-26T19:09:09.982Z,223.30
2018-12-26T19:12:32.401Z,200.97
2018-12-26T19:15:54.516Z,224.67
2018-12-26T19:19:16.936Z,220.33
2018-12-26T19:22:39.548Z,226.13
2018-12-26T19:26:01.957Z,430.03
2018-12-26T19:29:24.718Z,222.03
2018-12-26T19:32:47.255Z,472.60
2018-12-26T19:36:09.972Z,433.90
2018-12-26T19:39:32.615Z,290.57
2018-12-26T19:42:55.544Z,300.27
2018-12-26T19:46:17.715Z,325.57
2018-12-26T19:49:40.649Z,316.67
2018-12-26T19:53:03.345Z,470.70
2018-12-26T19:56:26.045Z,421.33
2018-12-26T19:59:48.925Z,277.80
2018-12-26T20:03:11.516Z,302.63
2018-12-26T20:06:34.021Z,278.33
2018-12-26T20:09:56.786Z,255.37
2018-12-26T20:13:19.297Z,308.73
2018-12-26T20:16:41.907Z,238.97
2018-12-26T20:20:04.654Z,279.57
2018-12-26T20:23:27.096Z,297.13
2018-12-26T20:26:49.488Z,320.93
2018-12-26T20:30:11.572Z,279.87
2018-12-26T20:33:34.288Z,322.47
2018-12-26T20:36:57.017Z,289.30
2018-12-26T20:40:19.521Z,287.20
2018-12-26T20:43:42.162Z,299.73
2018-12-26T20:47:04.755Z,321.83
2018-12-26T20:50:27.252Z,335.40
2018-12-26T20:53:50.131Z,335.77
2018-12-26T20:57:12.778Z,316.83
2018-12-26T21:00:35.422Z,311.67
2018-12-26T21:03:58.287Z,354.63
2018-12-26T21:07:20.857Z,299.20
2018-12-26T21:10:43.391Z,332.77
2018-12-26T21:14:05.744Z,342.50
2018-12-26T21:17:28.652Z,341.17
2018-12-26T21:20:50.734Z,309.83
2018-12-26T21:24:13.557Z,304.93
2018-12-26T21:27:36.386Z,320.60
2018-12-26T21:30:59.243Z,328.70
2018-12-26T21:34:21.745Z,388.07
2018-12-26T21:37:44.590Z,317.47
2018-12-26T21:41:07.577Z,321.17
2018-12-26T21:44:30.209Z,331.30
2018-12-26T21:47:52.981Z,327.33
2018-12-26T21:51:15.638Z,364.77
2018-12-26T21:54:38.176Z,387.73
2018-12-26T21:58:00.692Z,332.77
2018-12-26T22:01:23.055Z,335.57
2018-12-26T22:04:45.226Z,287.73
2018-12-26T22:08:07.725Z,330.97
2018-12-26T22:11:30.376Z,347.20
2018-12-26T22:14:52.504Z,322.20
2018-12-26T22:18:14.853Z,319.57
2018-12-26T22:21:37.653Z,342.50
2018-12-26T22:25:00.095Z,322.70
2018-12-26T22:28:22.649Z,298.90
2018-12-26T22:31:45.163Z,298.53
2018-12-26T22:35:07.749Z,321.90
2018-12-26T22:38:29.880Z,319.30
2018-12-26T22:41:52.556Z,267.93
2018-12-26T22:45:15.019Z,314.80
2018-12-26T22:48:37.489Z,263.77
2018-12-26T22:51:59.999Z,262.73
2018-12-26T22:55:22.294Z,233.17
2018-12-26T22:58:44.752Z,252.07
2018-12-26T23:02:07.661Z,231.80
2018-12-26T23:05:30.141Z,235.27
2018-12-26T23:08:52.756Z,245.07
2018-12-26T23:12:15.407Z,244.03
2018-12-26T23:15:38.287Z,235.03
2018-12-26T23:19:00.813Z,231.13
2018-12-26T23:22:23.215Z,217.53
2018-12-26T23:25:45.988Z,223.73
2018-12-26T23:29:08.073Z,218.80
2018-12-26T23:32:30.470Z,194.57
2018-12-26T23:35:53.152Z,185.97
2018-12-26T23:39:15.544Z,213.20
2018-12-26T23:42:37.909Z,198.30
2018-12-26T23:46:00.388Z,195.00
2018-12-26T23:49:22.825Z,183.20
2018-12-26T23:52:45.657Z,182.03
2018-12-26T23:56:08.438Z,184.90
2018-12-26T23:59:30.898Z,172.33
